Fort Morgan, CO

9:58 PM MDT on July 29, 2014 (GMT -0600)
Fort Morgan (KCOFORTM2) Elev 4327 ft | 40.24 °N, 103.79 °W | Change Station

Current weather conditions updated 1 second ago

Overcast
Overcast
62.6 °F
Feels Like 62.6 °F
N
1.6
Wind Variable Wind from NE
Gusts 11.4 mph

Tomorrow is forecast to be Much Cooler than today. Showers and thunderstorms.

Today
High -- | Low -- °F
--% Chance of Precip.
Yesterday
High -- | Low -- °F
Precip. -- in
5:50 AM 8:12 PM
Waxing Crescent, 9% visible
Pressure 30.26 in
Visibility 10.0 miles
Clouds Scattered Clouds 6000 ft
Overcast 9000 ft
Dew Point 62 °F
Humidity 99%
Rainfall 0.00 in
Snow Depth Not available.
UV 0.0 out of 12
Pollen 5.30 out of 12
Air Quality Not available.
Flu Activity Not available.
METAR KFMM 300335Z AUTO 05006KT 10SM SCT060 OVC090 16/15 A3026 RMK AO2 LTG DSNT W T01620151 PWINO

More Conditions Fewer Conditions

Pressure 30.26 in
Visibility 10.0 miles
Clouds Scattered Clouds 6000 ft
Overcast 9000 ft
Dew Point 62 °F
Humidity 99%
Rainfall 0.00 in
Snow Depth Not available.
UV 0.0 out of 12
Pollen 5.30 out of 12
Air Quality Not available.
Flu Activity Not available.
METAR KFMM 300335Z AUTO 05006KT 10SM SCT060 OVC090 16/15 A3026 RMK AO2 LTG DSNT W T01620151 PWINO

More Conditions Fewer Conditions

10-Day Weather Forecast

Almanac

Astronomy

Jul. 29, 2014 Rise Set
Actual Time 5:50 AM MDT 8:12 PM MDT
Civil Twilight 5:19 AM MDT 8:43 PM MDT
Nautical Twilight 4:41 AM MDT 9:21 PM MDT
Astronomical Twilight 3:59 AM MDT 10:02 PM MDT
Moon 8:29 AM MDT (7/29) 9:25 PM MDT (7/29)
Length of Visible Light 15h 23m
Length of Day
14h 22m
Tomorrow will be 1m 56s shorter.
Waxing Crescent, 9% of the Moon is Illuminated
Today
Waxing Crescent
Aug 3
First Quarter
Aug 10
Full
Aug 17
Last Quarter
Aug 25
New

Today's Extremes

State Highs State Lows

Community

WunderPhotos

Upload Photos

1,738,991 photos uploaded!

WunderBlogs® & News

By Dr. Jeff Masters
Director of Meteorology, Weather Underground
By Kari Strenfel
Meteorologist, Weather Underground
By Christopher C. Burt
Weather Historian, Weather Underground
July 29, 2014
July 29, 2014
July 29, 2014

Nearby

Snow Depth

Station Depth Elevation
Copeland Lake 0 in 8600 ft
Niwot 0 in 9910 ft
University Camp 0 in 10300 ft
Wild Basin 0 in 9560 ft
Echo Lake 0 in 10600 ft

Earthquake Activity

City Distance Mag. Time & Date
No recent earthquake activity has been reported nearby.
Minimum magnitude displayed is 2.5.

Coastal Water Temperatures

Place Temperature
No Stations Reporting

Nearby Weather Stations

Station Location Temp. Dew Point Humidity Wind Precip. Elev Updated Type
Fort Morgan, Fort Morgan, CO 62.6 °F 62 °F 99% NE  at  1.6 mph 0.00 in / hr 4327 ft 9:58 PM MDT Rapid Fire

Show More Stations Show Fewer Stations